Sweeney Granite Mountains, California Weather observations

Data are for 10 minute period ending at time listed.
 Day   Time   Solar   Ave.   Ave.  Ave.  Vector  Max.   Baro.   Total    
  of    of     Rad.   Air    Rel.  Wind   Wind   Wind  Press.  Precip.   
Year   Day            Temp.  Hum.  Speed  Dir.   Gust                    
2016   (PST)  Kw/m2    F      %     mph   deg.    mph    mb.     in.     
-------------------------------------------------------------------------
 237   20:10   0.00   78.1    27    1.4   306     3.2   871.1    0.00 
 237   20:20   0.00   80.6    23    0.8   290     1.8   871.1    0.00 
 237   20:30   0.00   79.0    27    1.0   288     2.3   871.1    0.00 
 237   20:40   0.00   76.4    31    0.5   332     2.0   871.1    0.00 
 237   20:50   0.00   76.4    32    1.6   289     2.6   871.1    0.00 
 237   21:00   0.00   76.9    30    1.7   291     2.3   871.1    0.00 
 237   21:10   0.00   76.8    31    2.4   280     3.4   871.1    0.00 
 237   21:20   0.00   78.1    27    3.0   261     6.2   871.0    0.00 
 237   21:30   0.00   78.2    26    1.6   270     3.4   871.1    0.00 
 237   21:40   0.00   78.0    25    2.8   279     9.8   871.1    0.00 
 237   21:50   0.00   76.6    27    3.8   312     7.9   871.1    0.00 
 237   22:00   0.00   78.1    23    3.8   316    13.1   871.0    0.00 
 237   22:10   0.00   79.7    21    7.7   320    13.4   871.1    0.00 
 237   22:20   0.00   79.7    21    8.2   302    13.5   871.1    0.00 
 237   22:30   0.00   79.1    21    5.8   268     8.7   871.2    0.00 
 237   22:40   0.00   78.7    22    6.3   288     9.7   871.2    0.00 
 237   22:50   0.00   77.5    23    6.8   301     9.5   871.2    0.00 
 237   23:00   0.00   77.7    23    7.6   300    12.2   871.1    0.00 
 237   23:10   100.00  99999.0   99999  99999.0   99999   99999.0   99999.0   99999.00 
 237   23:20   100.00  99999.0   99999  99999.0   99999   99999.0   99999.0   99999.00 
 237   23:30   100.00  99999.0   99999  99999.0   99999   99999.0   99999.0   99999.00 
 237   23:40   100.00  99999.0   99999  99999.0   99999   99999.0   99999.0   99999.00 
 237   23:50   100.00  99999.0   99999  99999.0   99999   99999.0   99999.0   99999.00 
 238    0:00   0.00   78.5    17   10.6   285    14.2   870.9    0.00 
 238    0:10   0.00   78.3    16   10.9   283    14.8   870.8    0.00 
 238    0:20   0.00   78.5    15   11.2   285    17.2   870.7    0.00 
 238    0:30   0.00   78.5    15   10.3   282    14.3   870.7    0.00 
 238    0:40   0.00   78.8    15    9.8   278    15.3   870.7    0.00 
 238    0:50   0.00   78.8    15    8.8   271    14.1   870.7    0.00 
 238    1:00   0.00   79.0    14    7.5   270    12.9   870.7    0.00 
 238    1:10   0.00   77.9    16    6.3   276     9.6   870.7    0.00 
 238    1:20   0.00   77.2    17    5.6   270     8.4   870.6    0.00 
 238    1:30   0.00   76.6    17    6.0   273     8.7   870.6    0.00 
 238    1:40   0.00   76.1    18    5.9   277     7.8   870.5    0.00 
 238    1:50   0.00   76.2    18    5.5   270     8.0   870.4    0.00 
 238    2:00   0.00   76.3    18    4.1   261     6.1   870.4    0.00 
 238    2:10   0.00   77.1    17    3.7   260     5.2   870.4    0.00 
 238    2:20   0.00   75.8    20    2.9   276     3.9   870.5    0.00 
 238    2:30   0.00   72.2    24    3.5   284     4.6   870.5    0.00 
 238    2:40   0.00   73.0    23    2.2   281     3.1   870.5    0.00 
 238    2:50   0.00   72.5    24    2.6   274     3.6   870.4    0.00 
 238    3:00   0.00   73.3    22    2.9   280     4.0   870.4    0.00 
 238    3:10   0.00   71.2    27    3.8   295     4.6   870.4    0.00 
 238    3:20   0.00   72.4    24    2.8   287     3.7   870.4    0.00 
 238    3:30   0.00   71.7    25    3.1   288     4.2   870.4    0.00 
 238    3:40   0.00   72.0    25    2.6   290     3.4   870.4    0.00 
 238    3:50   0.00   71.9    26    2.4   292     3.0   870.3    0.00 
 238    4:00   0.00   70.5    28    3.6   294     4.8   870.4    0.00 
 238    4:10   0.00   72.3    25    3.5   269     6.0   870.4    0.00 
 238    4:20   0.00   72.5    24    4.0   270     5.8   870.4    0.00 
 238    4:30   0.00   73.3    23    3.4   265     5.0   870.5    0.00 
 238    4:40   0.00   72.2    24    4.5   270     6.4   870.5    0.00 
 238    4:50   0.00   73.4    22    3.6   265     5.2   870.6    0.00 
 238    5:00   0.00   73.1    23    3.2   268     4.5   870.6    0.00 
 238    5:10   0.00   73.0    23    3.1   274     4.2   870.7    0.00 
 238    5:20   0.00   72.7    24    3.2   274     4.4   870.8    0.00 
 238    5:30   0.01   71.8    25    3.5   271     5.3   870.9    0.00 
 238    5:40   0.01   71.9    25    3.9   281     5.9   870.9    0.00 
 238    5:50   0.03   72.3    26    3.3   284     4.8   871.0    0.00 
 238    6:00   0.08   73.6    25    3.4   292     6.5   871.0    0.00 
 238    6:10   0.10   75.4    24    3.5   284     5.3   871.1    0.00 
 238    6:20   0.14   77.8    22    2.4   290     4.7   871.2    0.00 
 238    6:30   0.17   79.4    20    2.7   291     5.4   871.3    0.00 
 238    6:40   0.20   80.6    18    2.8   218     7.7   871.4    0.00 
 238    6:50   0.24   80.5    18    3.1   215     8.5   871.5    0.00 
 238    7:00   0.28   80.8    18    3.7   226     6.6   871.5    0.00 
 238    7:10   0.31   81.7    17    1.9   238     4.7   871.5    0.00 
 238    7:20   0.35   82.2    17    2.0   196     5.4   871.6    0.00 
 238    7:30   0.38   82.6    17    1.6   309     4.7   871.6    0.00 
 238    7:40   0.42   82.5    17    3.6   206     7.4   871.6    0.00 
 238    7:50   0.45   82.3    17    3.1   197     5.8   871.6    0.00 
 238    8:00   0.49   83.0    18    2.0   218     6.6   871.7    0.00 
 238    8:10   0.52   83.0    18    3.5   163     8.0   871.7    0.00 
 238    8:20   0.56   82.7    18    3.4   128     8.6   871.7    0.00 
 238    8:30   0.59   82.3    18    3.1   107     9.3   871.7    0.00 
 238    8:40   0.56   82.8    19    3.0   179     7.7   871.7    0.00 
 238    8:50   0.65   83.3    18    1.9   143     5.4   871.7    0.00 
 238    9:00   0.68   84.2    18    3.9   138     8.3   871.7    0.00 
 238    9:10   0.71   83.7    19    5.3   120    12.1   871.7    0.00 
 238    9:20   0.73   83.9    21    5.2   141    10.6   871.7    0.00 
 238    9:30   0.76   83.3    21    4.8   117    13.6   871.6    0.00 
 238    9:40   0.78   84.7    21    4.5   113    10.7   871.6    0.00 
 238    9:50   0.80   83.9    21    5.6   146    14.8   871.6    0.00 
 238   10:00   0.82   84.3    20    4.6   135    12.9   871.5    0.00 
 238   10:10   0.84   84.2    20    7.3   115    15.0   871.5    0.00 
 238   10:20   0.86   83.6    20    8.4   109    13.9   871.4    0.00 
 238   10:30   0.88   86.0    16    3.6   185     9.8   871.3    0.00 
 238   10:40   0.89   85.0    16    5.2   209    11.3   871.3    0.00 
 238   10:50   0.90   85.5    16    6.3   218    18.9   871.3    0.00 
 238   11:00   0.91   84.8    17    5.9   220    13.9   871.3    0.00 
 238   11:10   0.92   85.2    17    5.8   238    12.6   871.1    0.00 
 238   11:20   0.93   85.7    17    7.3   228    17.6   871.0    0.00 
 238   11:30   0.93   84.9    17    5.1   207    12.3   870.9    0.00 
 238   11:40   0.93   85.4    17    5.6   212    13.0   870.8    0.00 
 238   11:50   0.93   86.4    16    3.0   209    10.2   870.7    0.00 
 238   12:00   0.93   85.7    16    4.3   166    13.5   870.6    0.00 
 238   12:10   0.93   86.1    16    3.3   105    12.9   870.5    0.00 
 238   12:20   0.93   86.9    14    4.2   178    13.0   870.4    0.00 
 238   12:30   0.92   86.8    15    5.1   204    18.0   870.3    0.00 
 238   12:40   0.89   86.3    15    5.9   212    13.0   870.2    0.00 
 238   12:50   0.91   86.5    15    7.4   216    16.1   870.2    0.00 
 238   13:00   0.89   86.4    16    5.9   210    19.9   870.0    0.00 
 238   13:10   0.88   86.5    16    5.8   218    14.0   869.8    0.00 
 238   13:20   0.87   87.7    16    7.0   153    15.2   869.6    0.00 
 238   13:30   0.85   88.4    15    5.7   257    16.6   869.5    0.00 
 238   13:40   0.84   87.0    16   12.0   112    28.1   869.3    0.00 
 238   13:50   0.85   87.4    16    8.2   106    18.6   869.2    0.00 
 238   14:00   0.75   87.8    16    7.0   225    17.5   869.1    0.00 
 238   14:10   0.64   86.3    17    5.4   218    15.2   869.0    0.00 
 238   14:20   0.48   85.8    18    8.5   164    20.1   868.8    0.00 
 238   14:30   0.74   87.4    18    6.5   158    19.2   868.8    0.00 
 238   14:40   0.66   87.8    18    5.9   114    20.3   868.7    0.00 
 238   14:50   0.68   87.7    18    5.6   165    14.2   868.6    0.00 
 238   15:00   0.68   88.1    18    6.1   157    16.3   868.5    0.00 
 238   15:10   0.52   88.1    18    6.6   123    16.7   868.4    0.00 
 238   15:20   0.45   86.6    19    5.2    84    13.9   868.4    0.00 
 238   15:30   0.53   87.0    18    3.2   132    17.2   868.2    0.00 
 238   15:40   0.34   87.2    18    5.9   216    16.5   868.2    0.00 
 238   15:50   0.38   86.1    18    5.8   122    13.8   868.2    0.00 
 238   16:00   0.28   87.7    16    3.4   182     9.8   868.1    0.00 
 238   16:10   0.41   87.1    16    4.3   139    11.5   868.0    0.00 
 238   16:20   0.30   87.0    15    5.3   107    15.9   868.0    0.00 
 238   16:30   0.10   85.4    16    6.8    87    15.9   867.9    0.00 
 238   16:40   0.09   85.4    16    3.8   189    10.7   867.9    0.00 
 238   16:50   0.10   85.2    16    3.1   231    10.4   867.9    0.00 
 238   17:00   0.16   85.4    16    5.8   219    13.6   867.8    0.00 
 238   17:10   0.19   86.5    15    3.4   197    10.3   867.8    0.00 
 238   17:20   0.14   86.1    16    3.7   159     9.7   867.9    0.00 
 238   17:30   0.08   85.3    17    4.4   170    15.1   867.9    0.00 
 238   17:40   0.06   84.4    18    7.7   232    12.9   867.9    0.00 
 238   17:50   0.05   84.0    19    4.2   246    14.6   868.0    0.00 
 238   18:00   0.04   83.8    18    8.3   227    17.0   868.1    0.00 
 238   18:10   0.02   83.2    18    6.0   276    14.0   868.2    0.00 
 238   18:20   0.01   82.8    18    5.7   247    12.6   868.2    0.00 
 238   18:30   0.00   82.5    18    3.8   260    10.6   868.3    0.00 
 238   18:40   0.00   82.1    18    4.3   244    10.8   868.4    0.00 
 238   18:50   0.00   82.0    18    4.6   228    11.3   868.4    0.00 
 238   19:00   0.00   81.5    19    4.1   233    13.1   868.5    0.00 
 238   19:10   0.00   81.1    19    5.1   240    14.8   868.7    0.00 
 238   19:20   0.00   80.5    19    4.6   246    11.2   868.8    0.00 
 238   19:30   0.00   80.2    20    5.5   273    11.2   868.9    0.00 
 238   19:40   0.00   80.0    20    8.6   280    18.3   869.1    0.00 
 238   19:50   0.00   79.8    20    7.0   273    13.7   869.1    0.00 
 238   20:00   0.00   79.1    21    8.3   280    13.1   869.2    0.00 

Return to Sweeney Granite Mountains graphs page.


Western Regional Climate Center,wrcc@dri.edu